Time;durP1;ratioP1;P1;durP2;ratioP2;P2;SDS_P1;SDS_P2;PMS_P1;PMS_P2;Temp;Humidity;BMP_temperature;BMP_pressure;BME280_temperature;BME280_humidity;BME280_pressure;Samples;Min_cycle;Max_cycle;Signal;HPM_P1;HPM_P2
2023/01/18 00:00:49;;;;;;;0.88;0.88;;;-1.30;99.90;;;;;;4986120;28;20042;-82
2023/01/18 00:03:15;;;;;;;0.80;0.80;;;-1.30;99.90;;;;;;4971151;28;20038;-81
2023/01/18 00:05:42;;;;;;;0.73;0.73;;;-1.30;99.90;;;;;;4970552;28;20329;-78
2023/01/18 00:08:13;;;;;;;0.73;0.73;;;-1.30;99.90;;;;;;4981626;28;20054;-78
2023/01/18 00:10:39;;;;;;;0.75;0.75;;;-1.30;99.90;;;;;;4988527;28;20053;-79
2023/01/18 00:13:05;;;;;;;;;;;-0.60;99.90;;;;;;4985218;28;20084;-80
2023/01/18 00:15:31;;;;;;;1.00;1.00;;;-1.10;99.90;;;;;;4985472;28;20011;-78
2023/01/18 00:17:57;;;;;;;0.90;0.90;;;-1.10;99.90;;;;;;4986311;28;20030;-81
2023/01/18 00:20:24;;;;;;;0.70;0.70;;;-1.10;99.90;;;;;;4986025;28;20396;-80
2023/01/18 00:22:51;;;;;;;0.80;0.80;;;-1.10;99.90;;;;;;4984745;28;20487;-79
2023/01/18 00:25:18;;;;;;;0.70;0.70;;;-1.20;99.90;;;;;;4986257;28;20081;-80
2023/01/18 00:27:50;;;;;;;0.90;0.90;;;-1.00;99.90;;;;;;4983783;28;20038;-80
2023/01/18 00:30:19;;;;;;;0.65;0.65;;;-1.20;99.90;;;;;;5003457;28;20038;-82
2023/01/18 00:32:49;;;;;;;0.90;0.90;;;-1.10;99.90;;;;;;4987993;28;20050;-79
2023/01/18 00:35:15;;;;;;;0.60;0.60;;;-1.10;99.90;;;;;;4971038;28;20061;-80
2023/01/18 00:37:41;;;;;;;0.90;0.90;;;-1.10;99.90;;;;;;4988078;28;21963;-80
2023/01/18 00:40:08;;;;;;;0.80;0.80;;;-1.00;99.90;;;;;;4970895;28;20040;-80
2023/01/18 00:45:17;;;;;;;0.60;0.60;;;-1.00;99.90;;;;;;5004129;28;20057;-81
2023/01/18 00:47:43;;;;;;;0.60;0.60;;;-1.00;99.90;;;;;;4985383;28;20038;-83
2023/01/18 00:50:09;;;;;;;0.80;0.80;;;-0.90;99.90;;;;;;4983354;28;20090;-82
2023/01/18 00:52:35;;;;;;;;;;;-0.90;99.90;;;;;;4990192;28;20042;-81
2023/01/18 00:55:02;;;;;;;0.80;0.80;;;-0.90;99.90;;;;;;4983102;28;20318;-78
2023/01/18 00:57:28;;;;;;;0.90;0.90;;;-1.00;99.90;;;;;;4984127;28;20392;-81
2023/01/18 00:59:54;;;;;;;0.80;0.80;;;-0.90;99.90;;;;;;4969440;28;20046;-80
2023/01/18 01:02:20;;;;;;;0.80;0.80;;;-1.10;99.90;;;;;;4985175;28;20046;-82
2023/01/18 01:07:29;;;;;;;0.80;0.80;;;-1.20;99.90;;;;;;4987868;28;20412;-80
2023/01/18 01:09:56;;;;;;;0.82;0.82;;;-1.20;99.90;;;;;;4985904;28;20038;-82
2023/01/18 01:26:10;;;;;;;0.80;0.80;;;-1.30;99.90;;;;;;5002751;28;20430;-81
2023/01/18 01:28:38;;;;;;;0.90;0.90;;;-1.40;99.90;;;;;;4983472;28;20093;-81
2023/01/18 01:31:06;;;;;;;0.70;0.70;;;-1.40;99.90;;;;;;4984901;28;20101;-80
2023/01/18 01:33:33;;;;;;;1.00;1.00;;;-1.40;99.90;;;;;;4970669;28;20077;-78
2023/01/18 01:36:04;;;;;;;0.80;0.80;;;-1.40;99.90;;;;;;4984673;28;20153;-81
2023/01/18 01:38:30;;;;;;;0.80;0.80;;;-1.40;99.90;;;;;;4984476;28;20044;-77
2023/01/18 01:41:01;;;;;;;;;;;-1.40;99.90;;;;;;4967229;28;20042;-79
2023/01/18 01:43:38;;;;;;;0.70;0.70;;;-1.30;99.90;;;;;;4981915;28;19975;-79
2023/01/18 01:46:24;;;;;;;0.90;0.90;;;-1.30;99.90;;;;;;5002997;28;20038;-83
2023/01/18 01:49:03;;;;;;;0.80;0.80;;;-1.30;99.90;;;;;;4984469;28;20038;-81
2023/01/18 01:51:30;;;;;;;0.75;0.75;;;-1.30;99.90;;;;;;4985066;28;20435;-81
2023/01/18 01:54:01;;;;;;;0.70;0.70;;;-1.30;99.90;;;;;;4985729;28;20038;-78
2023/01/18 01:56:29;;;;;;;0.75;0.75;;;-1.40;99.90;;;;;;4985304;28;20447;-78
2023/01/18 01:58:59;;;;;;;1.17;1.17;;;-1.40;99.90;;;;;;4987372;28;20049;-78
2023/01/18 02:01:27;;;;;;;0.80;0.80;;;-1.40;99.90;;;;;;4986415;28;20434;-81
2023/01/18 02:03:55;;;;;;;0.80;0.80;;;-1.50;99.90;;;;;;4991267;28;20045;-79
2023/01/18 02:06:29;;;;;;;0.70;0.70;;;-1.50;99.90;;;;;;4973132;28;20080;-82
2023/01/18 02:08:59;;;;;;;1.70;1.60;;;-1.50;99.90;;;;;;4987352;28;20114;-79
2023/01/18 02:11:25;;;;;;;1.00;1.00;;;-1.50;99.90;;;;;;4995524;28;20033;-80
2023/01/18 02:13:52;;;;;;;0.90;0.90;;;-1.50;99.90;;;;;;4985594;28;20049;-81
2023/01/18 02:16:36;;;;;;;1.80;1.70;;;-1.50;99.90;;;;;;4985913;28;20046;-83
2023/01/18 02:19:12;;;;;;;0.80;0.80;;;-1.50;99.90;;;;;;4983055;28;20057;-80
2023/01/18 02:21:43;;;;;;;1.42;1.33;;;-1.50;99.90;;;;;;4984782;28;20146;-80
2023/01/18 02:24:53;;;;;;;0.90;0.90;;;-1.50;99.90;;;;;;4987928;28;20049;-79
2023/01/18 02:27:25;;;;;;;0.70;0.70;;;-1.50;99.90;;;;;;4977450;28;20054;-78
2023/01/18 02:30:07;;;;;;;0.73;0.73;;;-1.50;99.90;;;;;;4987094;28;20038;-82
2023/01/18 02:32:53;;;;;;;0.80;0.80;;;-1.50;99.90;;;;;;4976135;28;20049;-82
2023/01/18 02:35:44;;;;;;;0.90;0.90;;;-1.60;99.90;;;;;;4986616;28;20042;-79
2023/01/18 02:38:15;;;;;;;0.90;0.90;;;-1.50;99.90;;;;;;4983977;28;20046;-81
2023/01/18 02:41:11;;;;;;;0.70;0.70;;;-1.50;99.90;;;;;;4985950;28;20054;-83
2023/01/18 02:46:34;;;;;;;0.60;0.60;;;-1.50;99.90;;;;;;5003344;28;20056;-81
2023/01/18 02:49:31;;;;;;;1.02;1.02;;;-1.50;99.90;;;;;;4986311;28;20046;-83
2023/01/18 02:52:01;;;;;;;0.80;0.80;;;-1.50;99.90;;;;;;4976068;28;20081;-82
2023/01/18 02:54:28;;;;;;;0.88;0.88;;;-1.50;99.90;;;;;;4987101;28;20082;-77
2023/01/18 02:56:57;;;;;;;1.27;1.20;;;-1.50;99.90;;;;;;4990118;28;20046;-82
2023/01/18 02:59:35;;;;;;;0.80;0.80;;;-1.20;99.90;;;;;;4990226;28;20061;-81
2023/01/18 03:02:08;;;;;;;0.82;0.82;;;-1.50;99.90;;;;;;4957626;28;20038;-79
2023/01/18 03:04:53;;;;;;;0.80;0.80;;;-1.50;99.90;;;;;;4991197;28;20385;-80
2023/01/18 03:07:34;;;;;;;0.80;0.80;;;-1.50;99.90;;;;;;4989864;28;20054;-83
2023/01/18 03:10:02;;;;;;;0.80;0.80;;;-1.10;99.90;;;;;;4994476;28;20050;-77
2023/01/18 03:12:49;;;;;;;0.70;0.70;;;-1.50;99.90;;;;;;4988520;28;20126;-80
2023/01/18 03:15:21;;;;;;;1.00;1.00;;;-1.50;99.90;;;;;;5001434;28;20193;-81
2023/01/18 03:17:54;;;;;;;1.45;1.30;;;-1.50;99.90;;;;;;4988789;28;20053;-82
2023/01/18 03:20:24;;;;;;;0.73;0.73;;;-1.50;99.90;;;;;;4993195;28;20392;-81
2023/01/18 03:25:55;;;;;;;0.70;0.70;;;-1.50;99.90;;;;;;5003257;28;20058;-77
2023/01/18 03:34:19;;;;;;;0.65;0.65;;;-1.40;99.90;;;;;;5006635;28;20054;-81
2023/01/18 03:36:48;;;;;;;0.98;0.98;;;-1.40;99.90;;;;;;4994386;28;20034;-80
2023/01/18 03:39:34;;;;;;;0.70;0.70;;;-1.40;99.90;;;;;;4978382;28;20089;-81
2023/01/18 03:42:06;;;;;;;0.60;0.60;;;-1.30;99.90;;;;;;4990386;28;20049;-78
2023/01/18 03:44:45;;;;;;;0.70;0.70;;;-1.40;99.90;;;;;;4991028;28;20056;-81
2023/01/18 03:47:11;;;;;;;0.90;0.90;;;-1.40;99.90;;;;;;4984903;28;20127;-80
2023/01/18 03:49:37;;;;;;;0.73;0.73;;;-1.50;99.90;;;;;;4954940;28;20042;-77
2023/01/18 03:52:29;;;;;;;0.80;0.80;;;-1.50;99.90;;;;;;4969537;28;20081;-80
2023/01/18 03:55:23;;;;;;;1.50;1.40;;;-1.40;99.90;;;;;;4989785;28;20042;-81
2023/01/18 03:58:03;;;;;;;0.77;0.77;;;-1.40;99.90;;;;;;4989873;28;20037;-78
2023/01/18 04:00:30;;;;;;;0.70;0.70;;;-1.40;99.90;;;;;;4987809;28;20054;-81
2023/01/18 04:02:57;;;;;;;1.25;0.85;;;-1.40;99.90;;;;;;4968481;28;20075;-78
2023/01/18 04:05:24;;;;;;;0.60;0.60;;;-1.40;99.90;;;;;;4993950;28;20117;-81
2023/01/18 04:07:49;;;;;;;0.60;0.60;;;-1.30;99.90;;;;;;4987618;28;20129;-79
2023/01/18 04:10:15;;;;;;;2.40;2.05;;;-1.30;99.90;;;;;;4988339;28;20117;-79
2023/01/18 04:12:41;;;;;;;0.90;0.90;;;-1.30;99.90;;;;;;4971757;28;20045;-79
2023/01/18 04:15:07;;;;;;;;;;;-1.40;99.90;;;;;;4991392;28;20439;-79
2023/01/18 04:17:32;;;;;;;0.70;0.70;;;-1.40;99.90;;;;;;4986872;28;19918;-83
2023/01/18 04:19:58;;;;;;;0.77;0.77;;;-1.50;99.90;;;;;;4991729;28;20041;-81
2023/01/18 04:22:24;;;;;;;;;;;-1.50;99.90;;;;;;5007111;28;20112;-85
2023/01/18 04:24:49;;;;;;;0.70;0.70;;;-1.60;99.90;;;;;;4972321;28;19933;-82
2023/01/18 04:27:15;;;;;;;;;;;-1.50;99.90;;;;;;4992604;28;20263;-79
2023/01/18 04:29:40;;;;;;;0.70;0.70;;;-1.50;99.90;;;;;;4990866;28;19921;-85
2023/01/18 04:32:06;;;;;;;;;;;-1.40;99.90;;;;;;4988418;28;20096;-85
2023/01/18 04:34:32;;;;;;;0.70;0.70;;;-1.40;99.90;;;;;;4984775;28;20019;-80
2023/01/18 04:36:58;;;;;;;0.80;0.80;;;-1.40;99.90;;;;;;5003383;28;20092;-83
2023/01/18 04:39:24;;;;;;;;;;;-1.40;99.90;;;;;;4988321;28;20053;-80
2023/01/18 04:41:50;;;;;;;0.80;0.80;;;-1.40;99.90;;;;;;4986002;28;19925;-84
2023/01/18 04:44:16;;;;;;;;;;;-1.50;99.90;;;;;;4985756;28;20042;-81
2023/01/18 04:46:42;;;;;;;0.73;0.73;;;-1.50;99.90;;;;;;4981757;28;20032;-84
2023/01/18 04:49:14;;;;;;;;;;;-1.60;99.90;;;;;;4984799;28;20050;-83
2023/01/18 04:51:40;;;;;;;0.60;0.60;;;-1.60;99.90;;;;;;4985678;28;20608;-80
2023/01/18 04:54:07;;;;;;;0.90;0.90;;;-1.60;99.90;;;;;;5001488;28;20212;-84
2023/01/18 04:56:33;;;;;;;0.70;0.70;;;-2.30;99.90;;;;;;4987409;28;20046;-79
2023/01/18 04:58:59;;;;;;;;;;;-1.50;99.90;;;;;;4984860;28;20042;-80
2023/01/18 05:01:24;;;;;;;0.80;0.80;;;-0.40;99.90;;;;;;4982450;28;19924;-82
2023/01/18 05:03:52;;;;;;;0.90;0.90;;;-1.50;99.90;;;;;;5000038;28;20035;-85
2023/01/18 05:06:18;;;;;;;0.77;0.77;;;-1.50;99.90;;;;;;4986091;28;21830;-81
2023/01/18 05:08:45;;;;;;;0.85;0.85;;;-1.50;99.90;;;;;;4987082;28;20043;-80
2023/01/18 05:11:14;;;;;;;0.90;0.90;;;-1.50;99.90;;;;;;4985008;28;20058;-79
2023/01/18 05:13:40;;;;;;;0.80;0.80;;;-1.50;99.90;;;;;;4987595;28;20155;-82
2023/01/18 05:16:06;;;;;;;;;;;-1.50;99.90;;;;;;4989472;28;20066;-81
2023/01/18 05:18:32;;;;;;;0.80;0.80;;;-1.50;99.90;;;;;;4980761;28;20019;-81
2023/01/18 05:20:58;;;;;;;0.82;0.82;;;-1.60;99.90;;;;;;4986912;28;20057;-84
2023/01/18 05:23:24;;;;;;;1.10;1.10;;;-1.60;99.90;;;;;;4990143;28;20046;-80
2023/01/18 05:25:54;;;;;;;0.90;0.90;;;-1.60;99.90;;;;;;4983667;28;20388;-82
2023/01/18 05:28:20;;;;;;;0.80;0.80;;;-1.60;99.90;;;;;;4988573;28;20392;-81
2023/01/18 05:30:48;;;;;;;0.70;0.70;;;-1.60;99.90;;;;;;4988559;28;20125;-80
2023/01/18 05:33:13;;;;;;;0.70;0.70;;;-1.60;99.90;;;;;;4988041;28;20484;-82
2023/01/18 05:35:39;;;;;;;0.80;0.80;;;-1.70;99.90;;;;;;4988447;28;20039;-80
2023/01/18 05:38:06;;;;;;;0.80;0.80;;;-1.70;99.90;;;;;;4990843;28;20149;-82
2023/01/18 05:40:32;;;;;;;0.80;0.80;;;-1.70;99.90;;;;;;4988626;28;20081;-78
2023/01/18 05:42:57;;;;;;;2.08;1.98;;;-1.60;99.90;;;;;;4984461;28;20092;-81
2023/01/18 05:45:23;;;;;;;;;;;-1.50;99.90;;;;;;4988810;28;20057;-83
2023/01/18 05:47:48;;;;;;;1.65;1.55;;;-1.50;99.90;;;;;;4970234;28;19937;-82
2023/01/18 05:50:14;;;;;;;;;;;-1.40;99.90;;;;;;4956367;28;20158;-81
2023/01/18 05:52:40;;;;;;;0.60;0.60;;;-1.40;99.90;;;;;;4994927;28;20261;-80
2023/01/18 05:55:06;;;;;;;4.18;3.80;;;-1.40;99.90;;;;;;4956012;28;20042;-83
2023/01/18 05:57:32;;;;;;;;;;;-1.40;99.90;;;;;;4987010;28;20039;-83
2023/01/18 05:59:58;;;;;;;0.90;0.90;;;-1.40;99.90;;;;;;4994484;28;19929;-80
2023/01/18 06:02:24;;;;;;;0.70;0.70;;;-1.40;99.90;;;;;;4994643;28;20065;-78
2023/01/18 06:04:50;;;;;;;;;;;-1.40;99.90;;;;;;5002297;28;20061;-82
2023/01/18 06:07:15;;;;;;;0.60;0.60;;;-1.50;99.90;;;;;;4990608;28;19917;-82
2023/01/18 06:09:41;;;;;;;;;;;-1.50;99.90;;;;;;4992295;28;20042;-81
2023/01/18 06:12:07;;;;;;;0.60;0.60;;;-1.50;99.90;;;;;;4987440;28;19969;-82
2023/01/18 06:14:32;;;;;;;1.10;1.10;;;-1.50;99.90;;;;;;5005734;28;20096;-78
2023/01/18 06:17:00;;;;;;;0.77;0.77;;;-1.50;99.90;;;;;;4971413;28;20109;-78
2023/01/18 06:19:26;;;;;;;0.80;0.80;;;-1.40;99.90;;;;;;4989623;28;20070;-81
2023/01/18 06:21:53;;;;;;;0.90;0.90;;;-1.40;99.90;;;;;;4970945;28;20042;-82
2023/01/18 06:24:19;;;;;;;1.15;1.02;;;-1.40;99.90;;;;;;4987066;28;20498;-80
2023/01/18 06:26:44;;;;;;;0.60;0.60;;;-1.30;99.90;;;;;;5003889;28;20039;-80
2023/01/18 06:29:10;;;;;;;0.73;0.73;;;-1.40;99.90;;;;;;4987869;28;20053;-82
2023/01/18 06:31:36;;;;;;;0.73;0.73;;;-1.40;99.90;;;;;;4970709;28;20043;-83
2023/01/18 06:34:08;;;;;;;0.85;0.85;;;-1.40;99.90;;;;;;4989796;28;20042;-82
2023/01/18 06:36:37;;;;;;;1.38;1.27;;;-1.40;99.90;;;;;;4988735;28;20042;-80
2023/01/18 06:39:03;;;;;;;0.80;0.80;;;-1.40;99.90;;;;;;4987554;28;20069;-80
2023/01/18 06:41:29;;;;;;;1.92;1.75;;;-1.40;99.90;;;;;;4985951;28;20038;-81
2023/01/18 06:43:55;;;;;;;;;;;-1.40;99.90;;;;;;4988995;28;20050;-79
2023/01/18 06:46:21;;;;;;;2.35;2.15;;;-1.40;99.90;;;;;;4984350;28;19925;-84
2023/01/18 06:48:47;;;;;;;0.70;0.70;;;-1.50;99.90;;;;;;4987540;28;20026;-82
2023/01/18 06:51:13;;;;;;;0.80;0.80;;;-1.50;99.90;;;;;;5005966;28;20046;-80
2023/01/18 06:53:38;;;;;;;;;;;-1.50;99.90;;;;;;4982474;28;20488;-80
2023/01/18 06:56:09;;;;;;;0.60;0.60;;;-1.50;99.90;;;;;;5002206;28;19918;-81
2023/01/18 06:58:35;;;;;;;0.80;0.80;;;-1.50;99.90;;;;;;4970233;28;20050;-84
2023/01/18 07:01:01;;;;;;;1.00;1.00;;;-1.50;99.90;;;;;;4991605;28;20050;-80
2023/01/18 07:03:28;;;;;;;0.70;0.70;;;-1.50;99.90;;;;;;4986810;28;20049;-79
2023/01/18 07:05:54;;;;;;;1.55;1.45;;;-1.50;99.90;;;;;;4991981;28;20601;-80
2023/01/18 07:08:21;;;;;;;0.50;0.50;;;-1.50;99.90;;;;;;4985015;28;20049;-79
2023/01/18 07:10:47;;;;;;;0.50;0.50;;;-1.50;99.90;;;;;;4987460;28;20510;-83
2023/01/18 07:13:13;;;;;;;1.17;1.15;;;-1.20;99.90;;;;;;4993143;28;20045;-78
2023/01/18 07:15:38;;;;;;;0.82;0.82;;;-1.50;99.90;;;;;;4986589;28;20282;-81
2023/01/18 07:18:04;;;;;;;0.60;0.60;;;-1.50;99.90;;;;;;4976929;28;20512;-81
2023/01/18 07:20:30;;;;;;;;;;;-1.40;99.90;;;;;;4973396;28;20125;-78
2023/01/18 07:22:57;;;;;;;1.30;1.27;;;-1.40;99.90;;;;;;4971836;28;19922;-79
2023/01/18 07:25:23;;;;;;;1.95;1.85;;;-1.40;99.90;;;;;;4972652;28;20073;-84
2023/01/18 07:27:49;;;;;;;;;;;-1.40;99.90;;;;;;4991665;28;20065;-84
2023/01/18 07:30:15;;;;;;;0.60;0.60;;;-0.80;99.90;;;;;;4988657;28;19921;-82
2023/01/18 07:32:49;;;;;;;1.05;1.02;;;-1.50;99.90;;;;;;4986627;28;20395;-80
2023/01/18 07:35:22;;;;;;;0.60;0.60;;;-1.50;99.90;;;;;;4987993;28;20041;-81
2023/01/18 07:37:51;;;;;;;0.60;0.60;;;-1.50;99.90;;;;;;4988975;28;20046;-80
2023/01/18 07:40:16;;;;;;;0.88;0.88;;;-1.50;99.90;;;;;;4988527;28;20404;-78
2023/01/18 07:42:42;;;;;;;0.90;0.90;;;-1.50;99.90;;;;;;4992007;28;20042;-78
2023/01/18 07:45:09;;;;;;;0.70;0.70;;;-1.50;99.90;;;;;;4993676;28;20050;-81
2023/01/18 07:47:35;;;;;;;0.60;0.60;;;-1.50;99.90;;;;;;4977402;28;20443;-81
2023/01/18 07:50:01;;;;;;;0.80;0.80;;;-1.60;99.90;;;;;;4995898;28;20046;-79
2023/01/18 07:52:27;;;;;;;0.88;0.88;;;-1.50;99.90;;;;;;4992532;28;20503;-82
2023/01/18 07:54:52;;;;;;;0.80;0.80;;;-1.50;99.90;;;;;;4962953;28;20038;-78
2023/01/18 07:57:18;;;;;;;0.70;0.70;;;-1.50;99.90;;;;;;4968130;28;20108;-80
2023/01/18 07:59:44;;;;;;;1.10;1.10;;;-1.50;99.90;;;;;;4975316;28;20049;-81
2023/01/18 08:02:12;;;;;;;0.70;0.70;;;-1.50;99.90;;;;;;4976221;28;20058;-79
2023/01/18 08:04:39;;;;;;;0.73;0.73;;;-1.50;99.90;;;;;;4991394;28;20054;-84
2023/01/18 08:07:05;;;;;;;0.52;0.52;;;-1.40;99.90;;;;;;4991677;28;20046;-78
2023/01/18 08:09:33;;;;;;;;;;;-1.40;99.90;;;;;;4996898;28;20557;-81
2023/01/18 08:12:00;;;;;;;0.63;0.63;;;-1.40;99.90;;;;;;4988597;28;19930;-79
2023/01/18 08:14:26;;;;;;;1.40;1.40;;;-1.30;99.90;;;;;;4994615;28;20100;-81
2023/01/18 08:16:52;;;;;;;0.82;0.82;;;-1.30;99.90;;;;;;4992078;28;20038;-82
2023/01/18 08:19:17;;;;;;;;;;;-0.80;99.90;;;;;;4990405;28;20045;-79
2023/01/18 08:21:44;;;;;;;2.40;1.00;;;-1.20;99.90;;;;;;4991701;28;20410;-79
2023/01/18 08:24:09;;;;;;;0.60;0.60;;;-1.10;99.90;;;;;;4994216;28;20504;-81
2023/01/18 08:26:35;;;;;;;0.95;0.95;;;-1.20;99.90;;;;;;4992110;28;20049;-80
2023/01/18 08:29:01;;;;;;;0.60;0.60;;;-1.20;99.90;;;;;;4990766;28;20112;-81
2023/01/18 08:31:27;;;;;;;0.63;0.63;;;-1.10;99.90;;;;;;4969583;28;20441;-79
2023/01/18 08:33:53;;;;;;;0.68;0.68;;;-1.10;99.90;;;;;;5006841;28;20101;-80
2023/01/18 08:36:22;;;;;;;;;;;-1.10;99.90;;;;;;4992279;28;20082;-83
2023/01/18 08:38:54;;;;;;;0.52;0.52;;;-1.00;99.90;;;;;;4990441;28;19924;-79
2023/01/18 08:41:20;;;;;;;1.08;1.08;;;-1.00;99.90;;;;;;4975209;28;20556;-81
2023/01/18 08:43:49;;;;;;;0.50;0.50;;;0.20;99.90;;;;;;4989495;28;20116;-81
2023/01/18 08:46:15;;;;;;;0.70;0.70;;;-0.50;99.90;;;;;;4992187;28;20111;-80
2023/01/18 08:48:42;;;;;;;0.60;0.60;;;-0.60;99.90;;;;;;4992262;28;20053;-82
2023/01/18 08:51:08;;;;;;;0.60;0.60;;;0.20;99.90;;;;;;4990803;28;20060;-81
2023/01/18 08:53:34;;;;;;;0.70;0.70;;;-0.60;99.90;;;;;;4993030;28;20554;-84
2023/01/18 08:56:04;;;;;;;1.10;1.10;;;-0.60;99.90;;;;;;4988447;28;20042;-78
2023/01/18 08:58:31;;;;;;;0.80;0.80;;;-0.50;99.90;;;;;;5005449;28;20034;-83
2023/01/18 09:00:57;;;;;;;0.70;0.70;;;-0.50;99.90;;;;;;4987231;28;20543;-79
2023/01/18 09:03:23;;;;;;;0.50;0.50;;;-0.50;99.90;;;;;;4993959;28;20403;-78
2023/01/18 09:05:49;;;;;;;;;;;-0.40;99.90;;;;;;4997203;28;20049;-79
2023/01/18 09:08:16;;;;;;;0.60;0.60;;;-0.40;99.90;;;;;;4995149;28;20257;-78
2023/01/18 09:10:42;;;;;;;0.80;0.80;;;-0.40;99.90;;;;;;4989741;28;20050;-81
2023/01/18 09:13:09;;;;;;;2.72;1.35;;;-0.40;99.90;;;;;;4993843;28;20116;-82
2023/01/18 09:15:36;;;;;;;0.57;0.57;;;-0.30;99.90;;;;;;4998800;28;20660;-80
2023/01/18 09:18:05;;;;;;;0.60;0.60;;;-0.30;99.90;;;;;;4979253;28;20070;-84
2023/01/18 09:20:34;;;;;;;0.63;0.63;;;-0.20;99.90;;;;;;4994126;28;20038;-80
2023/01/18 09:23:03;;;;;;;0.60;0.60;;;-0.30;99.90;;;;;;4974968;28;20056;-80
2023/01/18 09:25:29;;;;;;;0.88;0.88;;;-0.10;99.90;;;;;;4989737;28;20042;-83
2023/01/18 09:27:55;;;;;;;1.00;1.00;;;0.00;99.90;;;;;;4991701;28;20121;-83
2023/01/18 09:30:20;;;;;;;0.77;0.77;;;0.00;99.90;;;;;;4995283;28;20550;-80
2023/01/18 09:32:46;;;;;;;0.70;0.70;;;0.10;99.90;;;;;;4994694;28;20062;-79
2023/01/18 09:35:16;;;;;;;0.65;0.65;;;0.10;99.90;;;;;;4990323;28;20072;-82
2023/01/18 09:37:43;;;;;;;0.70;0.70;;;0.50;99.90;;;;;;4974716;28;20122;-79
2023/01/18 09:40:15;;;;;;;0.85;0.85;;;0.20;99.90;;;;;;4956195;28;20050;-81
2023/01/18 09:42:46;;;;;;;0.80;0.80;;;0.30;99.90;;;;;;5000398;28;20046;-79
2023/01/18 09:45:33;;;;;;;0.70;0.70;;;0.40;99.90;;;;;;4981201;28;20053;-83
2023/01/18 09:48:04;;;;;;;0.80;0.80;;;0.40;99.90;;;;;;4988071;28;20093;-79
2023/01/18 09:50:35;;;;;;;0.77;0.77;;;0.50;99.90;;;;;;4985615;28;20413;-79
2023/01/18 09:53:22;;;;;;;6.72;0.95;;;0.50;99.90;;;;;;5005950;28;20050;-80
2023/01/18 09:56:14;;;;;;;1.33;1.30;;;0.50;99.90;;;;;;4989796;28;20065;-80
2023/01/18 09:59:02;;;;;;;0.60;0.60;;;0.60;99.90;;;;;;4995510;28;20054;-80
2023/01/18 10:01:33;;;;;;;0.70;0.70;;;0.70;99.90;;;;;;4989919;28;20045;-83
2023/01/18 10:04:18;;;;;;;1.25;1.25;;;0.80;99.90;;;;;;4979886;28;20121;-82
2023/01/18 10:06:52;;;;;;;0.60;0.60;;;0.80;99.90;;;;;;4992127;28;20125;-79
2023/01/18 10:09:38;;;;;;;0.77;0.77;;;0.90;99.90;;;;;;4992524;28;20049;-78
2023/01/18 10:12:45;;;;;;;0.70;0.70;;;1.00;99.90;;;;;;4988059;28;20072;-80
2023/01/18 10:15:22;;;;;;;0.98;0.93;;;1.00;99.90;;;;;;4929967;28;20054;-79
2023/01/18 10:17:52;;;;;;;0.93;0.93;;;1.10;99.90;;;;;;4989084;28;20133;-81
2023/01/18 10:20:58;;;;;;;0.95;0.95;;;1.10;99.90;;;;;;4988296;28;20079;-80
2023/01/18 10:23:48;;;;;;;0.70;0.70;;;1.20;99.90;;;;;;4986347;28;20053;-79
2023/01/18 10:26:30;;;;;;;0.93;0.93;;;1.20;99.90;;;;;;4988473;28;20057;-77
2023/01/18 10:29:07;;;;;;;0.73;0.73;;;1.30;99.90;;;;;;4994274;28;20066;-80
2023/01/18 10:32:00;;;;;;;0.60;0.60;;;1.30;99.90;;;;;;5004218;28;20039;-80
2023/01/18 10:34:33;;;;;;;0.80;0.80;;;1.30;99.90;;;;;;4994897;28;20034;-77
2023/01/18 10:37:22;;;;;;;0.60;0.60;;;1.30;99.90;;;;;;4992914;28;20046;-80
2023/01/18 10:39:59;;;;;;;0.73;0.73;;;1.40;99.90;;;;;;4981240;28;20054;-83
2023/01/18 10:42:39;;;;;;;0.93;0.93;;;1.40;99.90;;;;;;4989545;28;20050;-79
2023/01/18 10:45:32;;;;;;;0.60;0.60;;;1.50;99.90;;;;;;4988081;28;20108;-84
2023/01/18 10:48:15;;;;;;;0.90;0.90;;;1.50;99.90;;;;;;5003656;28;20057;-85
2023/01/18 10:50:44;;;;;;;0.80;0.80;;;1.60;99.90;;;;;;4991256;28;20531;-78
2023/01/18 10:53:22;;;;;;;0.70;0.70;;;1.70;99.90;;;;;;4985866;28;20539;-82
2023/01/18 10:55:58;;;;;;;0.55;0.55;;;1.70;99.90;;;;;;4973500;28;20368;-80
2023/01/18 10:58:26;;;;;;;0.52;0.52;;;1.80;99.90;;;;;;4989753;28;20396;-83
2023/01/18 11:00:54;;;;;;;1.85;1.58;;;1.90;99.90;;;;;;4989224;28;20039;-79
2023/01/18 11:03:21;;;;;;;0.85;0.85;;;1.90;99.90;;;;;;4968274;28;20839;-79
2023/01/18 11:05:47;;;;;;;0.60;0.60;;;1.90;99.90;;;;;;4983500;28;20410;-82
2023/01/18 11:08:30;;;;;;;2.53;2.35;;;2.00;99.90;;;;;;4970067;28;20047;-81
2023/01/18 11:11:14;;;;;;;1.00;1.00;;;2.00;99.90;;;;;;5003691;28;20050;-80
2023/01/18 11:13:48;;;;;;;0.68;0.68;;;2.20;99.90;;;;;;4970216;28;20042;-81
2023/01/18 11:16:22;;;;;;;5.88;3.90;;;2.10;99.90;;;;;;4986148;28;20038;-81
2023/01/18 11:18:54;;;;;;;0.60;0.60;;;2.10;99.90;;;;;;4995798;28;20038;-77
2023/01/18 11:21:20;;;;;;;1.33;1.33;;;2.00;99.90;;;;;;4993242;28;20046;-81
2023/01/18 11:23:45;;;;;;;0.90;0.90;;;2.20;99.90;;;;;;4988438;28;20534;-78
2023/01/18 11:26:18;;;;;;;1.35;1.25;;;2.30;99.90;;;;;;5000652;28;20046;-81
2023/01/18 11:28:43;;;;;;;1.15;1.15;;;2.30;99.90;;;;;;4969685;28;20769;-81
2023/01/18 11:31:14;;;;;;;0.73;0.73;;;2.40;99.90;;;;;;4992739;28;20050;-80
2023/01/18 11:33:52;;;;;;;0.80;0.80;;;2.40;99.90;;;;;;4991342;28;20065;-80
2023/01/18 11:36:20;;;;;;;0.70;0.70;;;2.50;99.90;;;;;;4994528;28;20049;-80
2023/01/18 11:38:46;;;;;;;0.70;0.70;;;2.50;99.90;;;;;;4973911;28;20161;-79
2023/01/18 11:41:20;;;;;;;0.60;0.60;;;2.50;99.90;;;;;;4974207;28;20046;-81
2023/01/18 11:44:10;;;;;;;0.80;0.80;;;2.50;99.90;;;;;;4994429;28;20046;-81
2023/01/18 11:46:46;;;;;;;0.60;0.60;;;2.60;99.90;;;;;;4990130;28;20227;-81
2023/01/18 11:49:22;;;;;;;1.00;1.00;;;2.60;99.90;;;;;;4990589;28;20049;-82
2023/01/18 11:51:56;;;;;;;0.70;0.70;;;2.60;99.90;;;;;;4995839;28;20296;-77
2023/01/18 11:54:49;;;;;;;0.60;0.60;;;2.70;99.90;;;;;;4987049;28;20050;-85
2023/01/18 11:57:15;;;;;;;0.55;0.55;;;2.80;99.90;;;;;;4966222;28;20111;-77
2023/01/18 11:59:44;;;;;;;1.05;1.05;;;2.90;99.90;;;;;;4994119;28;20492;-78
2023/01/18 12:02:54;;;;;;;3.83;3.63;;;2.90;99.90;;;;;;4991120;28;20069;-78
2023/01/18 12:05:43;;;;;;;1.00;1.00;;;2.90;99.90;;;;;;4989806;28;20445;-79
2023/01/18 12:08:22;;;;;;;0.68;0.68;;;2.90;99.90;;;;;;4988212;28;20046;-80
2023/01/18 12:11:08;;;;;;;0.68;0.68;;;3.00;99.90;;;;;;5008895;28;20046;-81
2023/01/18 12:14:00;;;;;;;1.30;1.30;;;3.10;99.90;;;;;;5002587;28;20118;-81
2023/01/18 12:16:46;;;;;;;1.02;1.02;;;3.10;99.90;;;;;;4990195;28;20113;-77
2023/01/18 12:19:40;;;;;;;0.70;0.70;;;3.40;99.90;;;;;;4992051;28;20137;-79
2023/01/18 12:22:27;;;;;;;1.05;1.05;;;3.20;99.90;;;;;;4989044;28;20127;-78
2023/01/18 12:25:08;;;;;;;0.70;0.70;;;3.30;99.90;;;;;;4983622;28;20053;-79
2023/01/18 12:27:54;;;;;;;0.60;0.60;;;3.30;99.90;;;;;;4987439;28;20082;-77
2023/01/18 12:30:42;;;;;;;0.60;0.60;;;3.50;99.90;;;;;;4987234;28;20112;-76
2023/01/18 12:33:28;;;;;;;0.73;0.73;;;3.30;99.90;;;;;;4991508;28;20133;-77
2023/01/18 12:35:57;;;;;;;0.70;0.70;;;3.40;99.90;;;;;;4990288;28;20424;-80
2023/01/18 12:38:33;;;;;;;1.50;1.40;;;3.40;99.90;;;;;;4988973;28;20046;-81
2023/01/18 12:41:26;;;;;;;0.80;0.80;;;3.50;99.90;;;;;;4986102;28;20132;-79
2023/01/18 12:44:14;;;;;;;2.95;2.70;;;3.50;99.90;;;;;;4988773;28;20058;-77
2023/01/18 12:46:52;;;;;;;0.60;0.60;;;3.60;99.90;;;;;;4985297;28;20514;-78
2023/01/18 12:49:20;;;;;;;0.70;0.70;;;3.60;99.90;;;;;;4994591;28;20073;-81
2023/01/18 12:51:58;;;;;;;0.70;0.70;;;3.70;99.90;;;;;;4998995;28;20551;-81
2023/01/18 12:54:38;;;;;;;1.35;1.25;;;3.70;99.90;;;;;;4988302;28;20042;-80
2023/01/18 12:57:05;;;;;;;0.80;0.80;;;3.80;99.90;;;;;;4981357;28;20053;-77
2023/01/18 12:59:54;;;;;;;0.80;0.80;;;3.80;99.90;;;;;;4987129;28;20073;-78
2023/01/18 13:02:52;;;;;;;1.42;1.42;;;3.90;99.90;;;;;;4984961;28;20054;-79
2023/01/18 13:05:35;;;;;;;0.98;0.98;;;3.90;99.90;;;;;;4949122;28;20054;-80
2023/01/18 13:08:29;;;;;;;2.53;1.45;;;3.90;99.90;;;;;;4976712;28;20034;-81
2023/01/18 13:11:06;;;;;;;0.60;0.60;;;3.90;99.90;;;;;;4993738;28;20050;-79
2023/01/18 13:13:34;;;;;;;1.10;1.10;;;3.80;99.90;;;;;;4984485;28;20451;-78
2023/01/18 13:16:12;;;;;;;0.80;0.80;;;3.70;99.90;;;;;;4986468;28;20050;-84
2023/01/18 13:19:04;;;;;;;1.05;1.02;;;3.60;99.90;;;;;;4989766;28;20074;-80
2023/01/18 13:22:04;;;;;;;1.38;1.38;;;3.60;99.90;;;;;;4987410;28;20125;-78
2023/01/18 13:24:55;;;;;;;0.90;0.90;;;3.50;99.90;;;;;;4985112;28;20803;-81
2023/01/18 13:27:21;;;;;;;0.88;0.88;;;3.50;99.90;;;;;;4987477;28;20077;-80
2023/01/18 13:29:47;;;;;;;0.70;0.70;;;3.60;99.90;;;;;;4984668;28;20042;-78
2023/01/18 13:32:34;;;;;;;0.70;0.70;;;3.40;99.90;;;;;;4987048;28;20046;-83
2023/01/18 13:35:14;;;;;;;0.55;0.55;;;3.40;99.90;;;;;;4984950;28;20042;-78
2023/01/18 13:37:54;;;;;;;0.60;0.60;;;3.50;99.90;;;;;;4986619;28;21659;-79
2023/01/18 13:40:20;;;;;;;0.50;0.50;;;3.50;99.90;;;;;;4998301;28;20061;-78
2023/01/18 13:42:46;;;;;;;0.65;0.65;;;3.40;99.90;;;;;;4999967;28;20039;-80
2023/01/18 13:45:18;;;;;;;0.63;0.63;;;3.40;99.90;;;;;;4988756;28;20742;-83
2023/01/18 13:47:54;;;;;;;0.80;0.80;;;3.30;99.90;;;;;;4991585;28;20361;-78
2023/01/18 13:50:30;;;;;;;0.60;0.60;;;3.30;99.90;;;;;;4983094;28;20520;-80
2023/01/18 13:53:14;;;;;;;0.88;0.88;;;3.20;99.90;;;;;;5004980;28;20046;-79